Fox Creek, Colorado
Current Conditions -  °F | °C
As of 3:52 PM on Thursday 27 Nov 2014 (Local Time) from KALS Reporting Station
Clear Clear  
Wind Chill: 51°   Ceiling: Unl
Heat Index: 51°   Visibility: 10mi
Dew Point: 17°   Wind: 0mph
Humidity: 26%   Direction: NA
Pressure: 30.36"   Gusts: NA
Location:  37.1816°N, 106.262°W
Report Text: KALS 272252Z AUTO 00000KT 10SM CLR 11/M08 A3036 RMK AO2 SLP283 T01061083
Loading
Personal Weather Stations






























Interactive Weather Map New forecast layout! Learn more

10-Day Weather Forecast

Advertisements
Track Severe Weather on mobile